Time;durP1;ratioP1;P1;durP2;ratioP2;P2;SDS_P1;SDS_P2;PMS_P1;PMS_P2;Temp;Humidity;BMP_temperature;BMP_pressure;BME280_temperature;BME280_humidity;BME280_pressure;Samples;Min_cycle;Max_cycle;Signal;HPM_P1;HPM_P2
2022/03/31 00:00:34;;;;;;;27.52;11.70;;;;;;;10.18;78.07;96150.22;5005307;28;20053;-66
2022/03/31 00:03:04;;;;;;;30.25;12.82;;;;;;;10.13;77.82;96139.50;5005015;28;20133;-69
2022/03/31 00:05:31;;;;;;;22.42;9.85;;;;;;;9.84;77.70;96088.00;5003833;28;20050;-56
2022/03/31 00:08:03;;;;;;;22.85;10.55;;;;;;;9.01;77.04;95951.78;5005526;28;20520;-57
2022/03/31 00:10:35;;;;;;;30.65;13.00;;;;;;;9.47;76.33;96012.00;5003901;28;20050;-56
2022/03/31 00:13:05;;;;;;;26.15;10.13;;;;;;;9.88;78.52;96138.59;5005378;28;20050;-69
2022/03/31 00:15:33;;;;;;;19.00;8.70;;;;;;;9.73;79.82;96141.66;5005082;28;20058;-56
2022/03/31 00:18:03;;;;;;;25.08;8.77;;;;;;;9.83;79.27;96130.66;5004235;28;20515;-56
2022/03/31 00:20:30;;;;;;;17.70;8.88;;;;;;;8.65;79.63;95944.47;5005074;28;20057;-57
2022/03/31 00:22:57;;;;;;;25.33;9.25;;;;;;;9.76;80.56;96129.84;5004947;28;20061;-60
2022/03/31 00:25:24;;;;;;;20.83;9.07;;;;;;;9.74;81.15;96138.50;5003143;28;20057;-70
2022/03/31 00:27:51;;;;;;;31.80;13.57;;;;;;;9.87;80.83;96134.25;5005217;28;20058;-57
2022/03/31 00:30:18;;;;;;;29.52;11.43;;;;;;;9.91;80.07;96126.75;5003266;28;20596;-67
2022/03/31 00:32:45;;;;;;;26.13;11.35;;;;;;;9.96;80.42;96123.59;5004226;28;20073;-56
2022/03/31 00:35:13;;;;;;;34.20;16.90;;;;;;;9.67;79.93;96083.19;5004751;28;20513;-56
2022/03/31 00:37:44;;;;;;;27.73;13.65;;;;;;;9.30;78.76;95990.59;5004616;28;20107;-66
2022/03/31 00:40:15;;;;;;;34.25;13.70;;;;;;;9.49;78.71;96054.66;5004685;28;20041;-68
2022/03/31 00:42:44;;;;;;;27.02;10.70;;;;;;;10.02;78.49;96116.50;5005111;28;20061;-66
2022/03/31 00:45:18;;;;;;;29.50;11.98;;;;;;;9.87;78.98;96114.88;5004449;28;20513;-57
2022/03/31 00:47:46;;;;;;;24.45;10.95;;;;;;;9.89;78.90;96118.06;5004820;28;20050;-57
2022/03/31 00:50:14;;;;;;;38.03;12.15;;;;;;;9.82;78.80;96108.91;5004493;28;20515;-57
2022/03/31 00:52:41;;;;;;;22.60;11.30;;;;;;;9.67;79.32;96121.91;5003575;28;20072;-69
2022/03/31 00:55:10;;;;;;;24.92;11.50;;;;;;;9.64;80.04;96117.13;4984754;28;20072;-68
2022/03/31 00:57:38;;;;;;;27.77;11.05;;;;;;;9.64;79.28;96122.66;4984991;28;20060;-69
2022/03/31 01:00:09;;;;;;;22.52;12.30;;;;;;;9.22;79.07;96067.13;4984986;28;20077;-56
2022/03/31 01:02:38;;;;;;;21.30;11.02;;;;;;;9.48;80.11;96113.88;4983246;28;20142;-56
2022/03/31 01:05:06;;;;;;;23.85;12.15;;;;;;;9.57;79.51;96111.56;4983492;28;20050;-68
2022/03/31 01:07:34;;;;;;;20.73;9.60;;;;;;;9.26;79.86;96079.00;4984850;28;20129;-68
2022/03/31 01:10:03;;;;;;;22.67;9.23;;;;;;;9.38;80.82;96108.28;4985206;28;20092;-58
2022/03/31 01:12:30;;;;;;;25.15;9.38;;;;;;;9.17;81.43;96073.00;4985073;28;20062;-57
2022/03/31 01:15:24;;;;;;;19.63;9.60;;;;;;;9.29;82.35;96116.91;4982437;28;20501;-57
2022/03/31 01:17:51;;;;;;;32.13;12.02;;;;;;;8.61;82.65;96003.59;4984624;28;20050;-69
2022/03/31 01:20:20;;;;;;;25.85;10.70;;;;;;;9.09;82.71;96063.88;4983034;28;20136;-57
2022/03/31 01:22:48;;;;;;;30.80;10.68;;;;;;;9.25;84.10;96124.38;4985009;28;20295;-57
2022/03/31 01:25:19;;;;;;;29.23;11.30;;;;;;;9.15;84.74;96105.78;4985054;28;20054;-68
2022/03/31 01:27:47;;;;;;;22.55;9.10;;;;;;;9.17;83.90;96097.88;4985130;28;20532;-69
2022/03/31 01:30:16;;;;;;;21.50;8.45;;;;;;;9.04;83.89;96077.28;4985241;28;20397;-57
2022/03/31 01:32:44;;;;;;;19.50;9.32;;;;;;;9.13;83.95;96097.06;4984687;28;20062;-57
2022/03/31 01:35:12;;;;;;;22.10;10.52;;;;;;;9.29;83.59;96096.78;4984429;28;20521;-68
2022/03/31 01:37:39;;;;;;;17.83;7.97;;;;;;;9.25;82.67;96099.50;4984170;28;20064;-68
2022/03/31 01:40:07;;;;;;;24.42;9.13;;;;;;;8.96;82.63;96064.59;4984395;28;20462;-65
2022/03/31 01:42:35;;;;;;;18.50;8.10;;;;;;;8.81;82.09;96013.19;4985101;28;20054;-67
2022/03/31 01:45:04;;;;;;;19.15;9.23;;;;;;;9.18;81.15;96099.47;4984599;28;20062;-68
2022/03/31 01:47:30;;;;;;;17.55;9.90;;;;;;;8.81;82.32;96051.84;4984343;28;20492;-67
2022/03/31 01:49:57;;;;;;;39.45;11.40;;;;;;;9.13;82.00;96113.66;4982766;28;20034;-68
2022/03/31 01:52:24;;;;;;;22.83;9.23;;;;;;;9.23;80.87;96099.13;4984004;28;20145;-57
2022/03/31 01:54:50;;;;;;;20.90;9.95;;;;;;;9.26;81.14;96089.25;5000870;28;20492;-68
2022/03/31 01:57:17;;;;;;;22.23;9.68;;;;;;;9.09;81.37;96107.28;5003831;28;20049;-69
2022/03/31 01:59:44;;;;;;;22.52;9.32;;;;;;;9.04;82.20;96110.44;5003901;28;20052;-59
2022/03/31 02:02:13;;;;;;;22.50;10.27;;;;;;;9.03;82.45;96108.81;5003978;28;20046;-57
2022/03/31 02:04:40;;;;;;;22.65;8.98;;;;;;;9.03;82.11;96100.53;5004357;28;20057;-70
2022/03/31 02:07:09;;;;;;;34.50;15.25;;;;;;;9.04;81.80;96122.25;5003935;28;20443;-70
2022/03/31 02:09:35;;;;;;;25.00;11.95;;;;;;;8.92;81.92;96091.38;5003160;28;20180;-70
2022/03/31 02:12:03;;;;;;;36.63;16.98;;;;;;;9.03;82.11;96097.78;5003772;28;20049;-57
2022/03/31 02:14:30;;;;;;;27.95;11.82;;;;;;;8.68;81.76;96064.34;5001783;28;20054;-68
2022/03/31 02:16:58;;;;;;;28.23;10.65;;;;;;;8.83;83.24;96099.19;5003621;28;20124;-67
2022/03/31 02:19:25;;;;;;;22.13;11.82;;;;;;;8.44;82.97;96020.81;5002191;28;20056;-70
2022/03/31 02:21:52;;;;;;;23.70;11.15;;;;;;;8.83;84.21;96090.91;5002113;28;20104;-69
2022/03/31 02:24:19;;;;;;;27.00;11.77;;;;;;;8.64;85.76;96102.19;5003298;28;20049;-67
2022/03/31 02:26:48;;;;;;;28.27;11.77;;;;;;;8.57;85.61;96104.88;5007462;28;20049;-69
2022/03/31 02:29:15;;;;;;;22.33;10.52;;;;;;;8.63;85.95;96095.88;5006981;28;20050;-57
2022/03/31 02:31:42;;;;;;;31.05;11.35;;;;;;;8.41;87.85;96094.06;5007083;28;20058;-59
2022/03/31 02:34:08;;;;;;;27.05;11.93;;;;;;;8.66;86.22;96100.63;5005878;28;20105;-57
2022/03/31 02:36:35;;;;;;;26.05;11.10;;;;;;;8.67;86.81;96104.19;5006869;28;20049;-69
2022/03/31 02:39:03;;;;;;;23.05;11.15;;;;;;;8.63;87.34;96106.13;5007080;28;20064;-60
2022/03/31 02:41:29;;;;;;;37.67;11.98;;;;;;;8.47;87.41;96086.25;5007598;28;20046;-60
2022/03/31 02:43:56;;;;;;;31.13;13.05;;;;;;;8.59;87.12;96099.78;5007484;28;20491;-68
2022/03/31 02:46:23;;;;;;;31.27;12.63;;;;;;;8.46;86.42;96106.72;5006988;28;20437;-68
2022/03/31 02:48:53;;;;;;;34.33;11.02;;;;;;;7.83;86.36;96034.31;5007014;28;20045;-67
2022/03/31 02:51:20;;;;;;;19.98;10.25;;;;;;;8.44;85.76;96109.88;5005272;28;20049;-56
2022/03/31 02:56:33;;;;;;;23.73;10.52;;;;;;;8.40;86.10;96114.56;4987134;28;20434;-58
2022/03/31 02:59:00;;;;;;;22.80;10.07;;;;;;;8.48;85.67;96109.91;5002328;28;20057;-57
2022/03/31 03:01:27;;;;;;;31.20;12.07;;;;;;;8.50;84.58;96107.56;4987030;28;20057;-57
2022/03/31 03:03:56;;;;;;;26.05;11.50;;;;;;;7.99;84.38;96021.91;4985943;28;20050;-69
2022/03/31 03:06:23;;;;;;;22.95;10.68;;;;;;;8.48;85.13;96093.34;4986902;28;20085;-68
2022/03/31 03:08:49;;;;;;;24.83;12.25;;;;;;;8.49;85.48;96105.97;4986949;28;20572;-57
2022/03/31 03:11:17;;;;;;;31.00;12.70;;;;;;;8.49;84.64;96089.41;4986676;28;20046;-66
2022/03/31 03:13:47;;;;;;;25.23;12.30;;;;;;;8.53;83.84;96095.78;5001961;28;20100;-57
2022/03/31 03:16:14;;;;;;;38.35;14.18;;;;;;;8.47;84.82;96108.34;4986919;28;20054;-54
2022/03/31 03:18:41;;;;;;;36.78;15.60;;;;;;;8.34;84.64;96071.16;4985751;28;20054;-67
2022/03/31 03:21:08;;;;;;;44.03;17.52;;;;;;;8.44;85.49;96076.00;4986704;28;20058;-66
2022/03/31 03:23:37;;;;;;;31.30;13.27;;;;;;;8.49;85.37;96084.69;4986787;28;20556;-68
2022/03/31 03:26:04;;;;;;;44.47;15.48;;;;;;;8.47;84.93;96075.22;4986572;28;20444;-70
2022/03/31 03:28:35;;;;;;;87.90;33.53;;;;;;;7.99;85.06;95988.03;4987124;28;20060;-57
2022/03/31 03:31:04;;;;;;;78.57;31.73;;;;;;;8.36;85.87;96064.06;4985244;28;20050;-67
2022/03/31 03:33:32;;;;;;;43.28;16.75;;;;;;;8.33;85.36;96058.53;4986700;28;20609;-56
2022/03/31 03:35:59;;;;;;;37.33;16.73;;;;;;;8.45;85.56;96099.63;4984749;28;20054;-57
2022/03/31 03:38:26;;;;;;;35.53;15.55;;;;;;;8.43;85.08;96096.47;4985380;28;20141;-69
2022/03/31 03:40:54;;;;;;;24.80;11.15;;;;;;;6.02;85.85;95743.53;4984850;28;20073;-69
2022/03/31 03:43:21;;;;;;;18.63;11.38;;;;;;;7.47;87.10;95994.56;4986704;28;20054;-69
2022/03/31 03:45:48;;;;;;;24.00;11.15;;;;;;;7.66;87.65;96038.47;4986142;28;20065;-68
2022/03/31 03:48:15;;;;;;;33.40;12.40;;;;;;;8.09;89.21;96053.53;4985931;28;20054;-57
2022/03/31 03:50:42;;;;;;;34.83;13.68;;;;;;;8.23;87.97;96075.75;4984517;28;20080;-57
2022/03/31 03:53:09;;;;;;;36.75;12.98;;;;;;;8.26;87.03;96080.53;4986180;28;20066;-70
2022/03/31 03:55:37;;;;;;;57.13;18.80;;;;;;;7.92;87.31;96071.44;4984374;28;20433;-57
2022/03/31 03:58:04;;;;;;;40.80;15.40;;;;;;;8.16;87.07;96086.69;4986538;28;20047;-57
2022/03/31 04:00:31;;;;;;;62.38;23.60;;;;;;;8.17;86.92;96088.28;4985696;28;20528;-56
2022/03/31 04:02:58;;;;;;;41.33;18.42;;;;;;;7.97;86.19;96051.81;4986134;28;20050;-69
2022/03/31 04:05:25;;;;;;;32.05;16.85;;;;;;;8.26;86.33;96097.06;4985720;28;20077;-59
2022/03/31 04:07:52;;;;;;;35.78;18.98;;;;;;;7.74;85.81;95993.28;4984343;28;20153;-56
2022/03/31 04:10:19;;;;;;;40.35;17.13;;;;;;;8.36;86.30;96074.34;4985988;28;20054;-57
2022/03/31 04:12:45;;;;;;;33.20;15.30;;;;;;;8.35;86.47;96081.00;4985580;28;20437;-69
2022/03/31 04:15:15;;;;;;;33.80;13.52;;;;;;;8.25;87.66;96078.94;4983911;28;20118;-69
2022/03/31 04:17:42;;;;;;;31.33;13.85;;;;;;;8.35;87.72;96083.75;4985818;28;20089;-57
2022/03/31 04:20:13;;;;;;;37.25;16.55;;;;;;;8.39;87.82;96082.66;4985451;28;20050;-57
2022/03/31 04:22:41;;;;;;;35.85;17.13;;;;;;;7.94;87.65;96002.16;4986125;28;20050;-69
2022/03/31 04:25:10;;;;;;;35.42;13.60;;;;;;;8.24;86.99;96042.28;4985355;28;20472;-56
2022/03/31 04:27:38;;;;;;;33.15;14.10;;;;;;;8.56;86.96;96070.97;4985208;28;20054;-69
2022/03/31 04:30:08;;;;;;;35.22;13.85;;;;;;;8.63;87.11;96078.53;4983284;28;20508;-57
2022/03/31 04:32:35;;;;;;;36.00;18.33;;;;;;;8.72;86.70;96076.22;4985212;28;20054;-70
2022/03/31 04:35:02;;;;;;;40.22;19.00;;;;;;;8.75;86.04;96069.94;4984861;28;20058;-57
2022/03/31 04:37:30;;;;;;;29.27;13.27;;;;;;;8.74;84.95;96068.38;4985571;28;20525;-68
2022/03/31 04:39:56;;;;;;;30.63;13.80;;;;;;;8.63;82.68;96023.31;4983999;28;20058;-57
2022/03/31 04:42:23;;;;;;;147.73;21.38;;;;;;;8.40;83.50;96008.91;4985516;28;20092;-59
2022/03/31 04:44:50;;;;;;;51.85;17.67;;;;;;;8.84;83.42;96084.22;4985320;28;20520;-57
2022/03/31 04:47:17;;;;;;;23.88;12.00;;;;;;;8.86;83.59;96068.06;4984843;28;20046;-57
2022/03/31 04:49:43;;;;;;;26.60;11.77;;;;;;;8.93;83.46;96076.41;4985510;28;20050;-57
2022/03/31 04:52:11;;;;;;;23.40;11.75;;;;;;;8.94;84.70;96066.94;4985454;28;20061;-69
2022/03/31 04:54:43;;;;;;;28.48;14.50;;;;;;;9.10;83.86;96064.69;4999069;28;20084;-58
2022/03/31 04:57:18;;;;;;;31.63;13.85;;;;;;;9.25;83.39;96063.59;5004407;28;20421;-68
2022/03/31 04:59:45;;;;;;;27.63;14.15;;;;;;;9.39;82.80;96071.97;4997938;28;20539;-57
2022/03/31 05:02:12;;;;;;;32.72;14.27;;;;;;;9.30;82.33;96073.47;4983753;28;20054;-56
2022/03/31 05:04:40;;;;;;;43.45;16.33;;;;;;;9.57;81.49;96067.34;4985068;28;20065;-68
2022/03/31 05:07:08;;;;;;;34.70;15.60;;;;;;;9.69;80.66;96064.22;4984926;28;20058;-68
2022/03/31 05:09:35;;;;;;;29.80;13.68;;;;;;;9.83;79.90;96069.81;4985270;28;20415;-57
2022/03/31 05:12:02;;;;;;;33.30;16.48;;;;;;;9.93;79.61;96085.66;4985082;28;20058;-57
2022/03/31 05:14:29;;;;;;;33.50;15.82;;;;;;;9.94;80.28;96073.41;4983226;28;20068;-69
2022/03/31 05:16:56;;;;;;;33.17;14.73;;;;;;;10.01;80.27;96081.75;4984540;28;20494;-69
2022/03/31 05:19:23;;;;;;;34.05;15.75;;;;;;;10.19;79.13;96076.31;4984589;28;20161;-71
2022/03/31 05:21:50;;;;;;;26.70;12.82;;;;;;;10.18;79.53;96086.56;4983282;28;20056;-70
2022/03/31 05:24:16;;;;;;;28.48;13.68;;;;;;;10.54;78.80;96082.69;4984160;28;20054;-69
2022/03/31 05:26:43;;;;;;;32.10;13.82;;;;;;;11.01;76.63;96083.50;4983245;28;20117;-59
2022/03/31 05:29:10;;;;;;;25.10;13.00;;;;;;;10.87;75.02;96028.13;4984308;28;20057;-57
2022/03/31 05:31:36;;;;;;;30.63;12.95;;;;;;;11.23;73.96;96035.19;4983702;28;20058;-59
2022/03/31 05:34:03;;;;;;;22.98;12.63;;;;;;;11.88;72.59;96099.25;4982377;28;20062;-70
2022/03/31 05:36:30;;;;;;;36.75;15.80;;;;;;;11.82;73.56;96090.53;4983544;28;20058;-57
2022/03/31 05:38:57;;;;;;;36.85;16.48;;;;;;;11.99;72.33;96105.53;4982847;28;20066;-69
2022/03/31 05:41:24;;;;;;;37.80;16.15;;;;;;;11.82;71.37;96050.91;4982268;28;20492;-57
2022/03/31 05:43:51;;;;;;;35.40;17.20;;;;;;;12.10;72.75;96095.19;4982962;28;20051;-56
2022/03/31 05:46:20;;;;;;;36.97;17.15;;;;;;;11.57;71.96;96016.91;4982627;28;20050;-57
2022/03/31 05:48:46;;;;;;;28.95;15.90;;;;;;;11.96;72.18;96112.69;4985268;28;20061;-59
2022/03/31 05:51:14;;;;;;;35.38;15.48;;;;;;;11.89;72.50;96100.81;5007084;28;20046;-60
2022/03/31 05:53:41;;;;;;;27.20;13.10;;;;;;;11.55;72.58;96060.88;4983351;28;20446;-65
2022/03/31 05:56:08;;;;;;;28.35;14.23;;;;;;;11.79;73.48;96101.66;4992860;28;20060;-58
2022/03/31 05:58:35;;;;;;;26.27;13.55;;;;;;;11.50;73.48;96056.53;4985217;28;20073;-66
2022/03/31 06:01:02;;;;;;;25.95;13.60;;;;;;;11.88;73.50;96100.03;4985778;28;20046;-56
2022/03/31 06:03:30;;;;;;;35.97;14.52;;;;;;;11.87;74.01;96081.03;5002180;28;20376;-54
2022/03/31 06:05:57;;;;;;;26.02;12.45;;;;;;;10.09;73.23;95773.53;5006101;28;20061;-55
2022/03/31 06:08:24;;;;;;;30.02;12.13;;;;;;;12.11;73.58;96102.31;5006812;28;20407;-54
2022/03/31 06:10:50;;;;;;;43.85;12.95;;;;;;;12.10;73.76;96106.28;5004283;28;20293;-68
2022/03/31 06:13:17;;;;;;;25.85;12.38;;;;;;;12.12;74.26;96115.78;4999672;28;20512;-62
2022/03/31 06:15:44;;;;;;;26.75;12.13;;;;;;;11.35;75.19;96020.94;4997449;28;20046;-63
2022/03/31 06:18:10;;;;;;;25.80;11.68;;;;;;;11.92;75.70;96116.66;4994307;28;20046;-56
2022/03/31 06:20:38;;;;;;;30.15;11.27;;;;;;;11.95;76.02;96126.94;4995329;28;20477;-56
2022/03/31 06:23:05;;;;;;;24.77;12.18;;;;;;;11.37;76.86;96065.66;4995869;28;20524;-66
2022/03/31 06:25:32;;;;;;;34.47;15.95;;;;;;;11.54;78.80;96057.28;4999443;28;20054;-60
2022/03/31 06:27:58;;;;;;;28.67;14.05;;;;;;;11.91;79.36;96117.88;5005213;28;20065;-59
2022/03/31 06:30:25;;;;;;;31.23;14.00;;;;;;;12.00;80.17;96118.22;5001499;28;20046;-57
2022/03/31 06:32:52;;;;;;;36.38;17.13;;;;;;;11.99;80.75;96105.53;4995388;28;20050;-60
2022/03/31 06:35:20;;;;;;;45.90;23.98;;;;;;;11.99;82.44;96111.09;5005665;28;20053;-63
2022/03/31 06:37:47;;;;;;;40.53;20.98;;;;;;;11.99;81.04;96116.66;5004791;28;20504;-60
2022/03/31 06:40:16;;;;;;;39.53;20.70;;;;;;;11.89;80.99;96106.38;4995369;28;20056;-58
2022/03/31 06:42:45;;;;;;;39.80;17.77;;;;;;;9.96;81.74;95827.63;5003235;28;20504;-74
2022/03/31 06:45:14;;;;;;;31.10;16.83;;;;;;;12.00;80.39;96132.09;4998591;28;20060;-57
2022/03/31 06:47:57;;;;;;;34.88;17.50;;;;;;;11.86;80.09;96107.97;4993455;28;20050;-68
2022/03/31 06:50:32;;;;;;;35.35;17.88;;;;;;;11.97;80.60;96124.56;4995721;28;20057;-57
2022/03/31 06:52:59;;;;;;;40.08;20.02;;;;;;;11.82;84.99;96095.31;4997479;28;20057;-59
2022/03/31 06:55:27;;;;;;;39.33;19.33;;;;;;;12.10;84.88;96111.84;4628466;28;10000875;-62
2022/03/31 06:57:54;;;;;;;44.00;21.67;;;;;;;12.17;84.76;96117.38;4987155;28;20050;-59
2022/03/31 07:00:21;;;;;;;61.67;31.30;;;;;;;12.24;84.33;96117.34;4986015;28;20054;-59
2022/03/31 07:02:48;;;;;;;49.10;24.60;;;;;;;12.38;85.35;96106.16;4986883;28;20145;-68
2022/03/31 07:05:15;;;;;;;47.58;24.77;;;;;;;12.47;85.72;96092.63;4986560;28;20505;-58
2022/03/31 07:07:42;;;;;;;55.08;27.38;;;;;;;12.48;85.74;96080.31;4985315;28;20429;-60
2022/03/31 07:10:10;;;;;;;96.13;45.80;;;;;;;12.53;86.67;96077.13;4986297;28;20060;-59
2022/03/31 07:12:40;;;;;;;80.68;38.08;;;;;;;12.78;84.33;96074.97;4986705;28;20482;-68
2022/03/31 07:15:08;;;;;;;54.42;25.88;;;;;;;12.59;82.89;96006.03;4986626;28;20046;-68
2022/03/31 07:17:35;;;;;;;53.72;28.33;;;;;;;12.59;81.34;95989.38;4986460;28;20066;-59
2022/03/31 07:20:03;;;;;;;46.72;22.05;;;;;;;12.43;80.82;95950.22;4987382;28;20504;-67
2022/03/31 07:22:30;;;;;;;34.08;19.13;;;;;;;12.82;80.38;96075.72;4994932;28;20589;-66
2022/03/31 07:24:57;;;;;;;38.78;18.92;;;;;;;12.84;80.65;96087.22;4990662;28;20082;-62
2022/03/31 07:27:24;;;;;;;36.17;16.30;;;;;;;12.11;78.60;95908.00;5000216;28;20144;-59
2022/03/31 07:29:51;;;;;;;29.98;14.55;;;;;;;13.44;78.05;96045.81;4989158;28;20049;-59
2022/03/31 07:32:18;;;;;;;28.33;13.57;;;;;;;13.29;77.77;95977.59;4994043;28;20575;-60
2022/03/31 07:34:44;;;;;;;26.58;11.57;;;;;;;14.28;74.67;96087.81;5004672;28;20058;-59
2022/03/31 07:37:13;;;;;;;25.30;12.05;;;;;;;14.39;73.38;96044.69;4992177;28;20073;-64
2022/03/31 07:39:45;;;;;;;28.65;11.63;;;;;;;14.71;73.54;96083.25;4994533;28;20054;-60
2022/03/31 07:42:15;;;;;;;25.48;11.30;;;;;;;14.51;73.37;96074.00;4996296;28;20132;-64
2022/03/31 07:44:42;;;;;;;22.17;11.25;;;;;;;15.31;71.15;96105.41;4989721;28;20046;-58
2022/03/31 07:47:09;;;;;;;28.73;12.10;;;;;;;15.50;69.19;96099.16;5000562;28;20064;-56
2022/03/31 07:49:36;;;;;;;24.95;11.20;;;;;;;15.99;68.89;96112.22;4992940;28;20054;-64
2022/03/31 07:52:04;;;;;;;19.10;10.10;;;;;;;16.21;65.45;96085.44;4996345;28;20046;-70
2022/03/31 07:54:43;;;;;;;27.10;11.43;;;;;;;16.17;64.96;96051.16;4988836;28;20426;-68
2022/03/31 07:57:10;;;;;;;21.77;12.20;;;;;;;16.48;64.07;96083.28;4996736;28;20062;-67
2022/03/31 07:59:36;;;;;;;24.45;10.88;;;;;;;16.43;62.78;96036.25;4990171;28;20111;-58
2022/03/31 08:02:03;;;;;;;23.85;10.52;;;;;;;17.13;59.06;96073.03;5005224;28;20050;-63
2022/03/31 08:04:30;;;;;;;23.63;10.93;;;;;;;17.34;59.60;96097.69;4988050;28;20149;-59
2022/03/31 08:06:57;;;;;;;23.45;12.23;;;;;;;17.54;58.68;96108.81;4997842;28;20569;-69
2022/03/31 08:09:24;;;;;;;19.30;9.65;;;;;;;17.07;55.64;95973.25;5001019;28;20103;-72
2022/03/31 08:11:51;;;;;;;15.30;9.43;;;;;;;17.69;55.09;96084.81;5003172;28;20057;-68
2022/03/31 08:14:20;;;;;;;18.80;9.07;;;;;;;17.60;53.94;96079.06;4995642;28;20045;-67
2022/03/31 08:16:48;;;;;;;15.30;9.35;;;;;;;17.69;56.35;96107.22;4999001;28;20053;-63
2022/03/31 08:19:16;;;;;;;18.45;9.43;;;;;;;17.64;55.26;96093.78;4999105;28;20226;-71
2022/03/31 08:21:47;;;;;;;22.73;13.38;;;;;;;17.93;56.24;96086.19;4985780;28;20607;-55
2022/03/31 08:24:15;;;;;;;13.13;9.23;;;;;;;17.03;58.35;96090.84;4992952;28;20539;-73
2022/03/31 08:26:45;;;;;;;13.60;9.95;;;;;;;16.39;60.79;96068.28;4993399;28;20156;-69
2022/03/31 08:29:12;;;;;;;23.48;9.75;;;;;;;16.26;61.70;96076.56;5005485;28;20077;-64
2022/03/31 08:31:39;;;;;;;32.67;19.50;;;;;;;16.85;60.71;96062.47;4997574;28;20527;-58
2022/03/31 08:34:07;;;;;;;22.60;8.45;;;;;;;16.24;59.38;96011.91;4986803;28;20050;-58
2022/03/31 08:36:35;;;;;;;20.17;9.18;;;;;;;16.69;59.97;96092.44;4996065;28;20049;-64
2022/03/31 08:39:04;;;;;;;15.27;8.93;;;;;;;17.10;57.67;96095.47;4991405;28;20076;-64
2022/03/31 08:41:32;;;;;;;13.30;8.88;;;;;;;17.47;57.41;96069.78;5002485;28;20049;-56
2022/03/31 08:43:59;;;;;;;14.65;8.35;;;;;;;16.92;57.42;95966.41;4988700;28;20117;-70
2022/03/31 08:46:32;;;;;;;27.02;10.38;;;;;;;17.27;57.99;96052.28;4988408;28;20068;-71
2022/03/31 08:48:59;;;;;;;31.80;10.85;;;;;;;17.68;57.73;96018.84;4999741;28;20054;-60
2022/03/31 08:51:26;;;;;;;16.63;9.40;;;;;;;18.04;55.33;96050.25;5004377;28;20045;-66
2022/03/31 08:53:53;;;;;;;20.90;10.98;;;;;;;17.09;58.08;96049.13;4992826;28;20059;-59
2022/03/31 08:56:20;;;;;;;22.38;9.73;;;;;;;16.80;58.32;96021.06;4998381;28;20521;-59
2022/03/31 08:58:47;;;;;;;22.88;10.65;;;;;;;17.07;57.79;96012.41;4994107;28;20053;-63
2022/03/31 09:01:15;;;;;;;21.50;9.48;;;;;;;17.38;56.68;96044.41;5002012;28;20128;-58
2022/03/31 09:03:43;;;;;;;19.67;10.73;;;;;;;17.77;56.71;96010.56;4984313;28;20719;-58
2022/03/31 09:06:30;;;;;;;28.85;13.20;;;;;;;18.42;56.07;96034.34;4994440;28;20286;-67
2022/03/31 09:09:04;;;;;;;19.17;10.52;;;;;;;18.92;53.45;96014.75;4994099;28;20069;-58
2022/03/31 09:11:34;;;;;;;26.45;12.02;;;;;;;19.08;53.75;96014.63;4990846;28;20133;-58
2022/03/31 09:14:12;;;;;;;21.40;10.30;;;;;;;19.51;52.15;96028.06;5003631;28;20483;-58
2022/03/31 09:16:40;;;;;;;23.73;10.35;;;;;;;18.54;54.16;96025.16;4987745;28;20058;-61
2022/03/31 09:19:09;;;;;;;18.95;9.82;;;;;;;18.65;53.40;96002.41;4990680;28;20160;-60
2022/03/31 09:22:00;;;;;;;15.85;9.50;;;;;;;19.54;52.19;96025.13;4991441;28;20126;-59
2022/03/31 09:24:30;;;;;;;19.00;10.77;;;;;;;18.61;53.26;95987.69;4983191;28;20054;-66
2022/03/31 09:26:59;;;;;;;16.30;9.52;;;;;;;18.97;52.18;96014.19;4982388;28;20148;-59
2022/03/31 09:29:28;;;;;;;17.35;9.77;;;;;;;18.72;51.33;95924.41;4986880;28;20062;-57
2022/03/31 09:32:16;;;;;;;22.02;10.75;;;;;;;18.21;54.96;96023.72;4983917;28;20064;-59
2022/03/31 09:34:46;;;;;;;25.42;9.63;;;;;;;18.85;53.96;96005.78;4993889;28;20380;-65
2022/03/31 09:37:14;;;;;;;17.80;11.10;;;;;;;18.61;53.95;95991.28;4991698;28;20543;-57
2022/03/31 09:39:41;;;;;;;19.73;10.32;;;;;;;18.15;53.53;95924.59;4985374;28;20060;-57
2022/03/31 09:42:13;;;;;;;34.42;11.10;;;;;;;17.75;55.60;95945.81;5003054;28;20050;-58
2022/03/31 09:44:42;;;;;;;20.45;10.15;;;;;;;18.16;56.03;95999.06;5003481;28;20588;-56
2022/03/31 09:47:10;;;;;;;29.25;10.38;;;;;;;18.64;54.60;96001.63;5001892;28;20482;-64
2022/03/31 09:49:37;;;;;;;30.02;12.90;;;;;;;18.86;54.35;95991.28;5002263;28;20050;-59
2022/03/31 09:52:07;;;;;;;39.90;13.60;;;;;;;18.27;54.57;95993.94;5003676;28;20055;-56
2022/03/31 09:54:35;;;;;;;26.73;10.93;;;;;;;17.45;57.11;95999.47;5003000;28;20115;-64
2022/03/31 09:57:07;;;;;;;28.42;12.45;;;;;;;18.10;56.93;96006.44;4988398;28;20091;-56
2022/03/31 09:59:36;;;;;;;30.48;11.55;;;;;;;17.93;55.66;95974.09;4984031;28;20137;-69
2022/03/31 10:02:03;;;;;;;27.13;9.93;;;;;;;18.55;54.04;95983.88;4971838;28;20054;-57
2022/03/31 10:04:32;;;;;;;23.77;10.25;;;;;;;18.99;53.65;95986.47;4983996;28;20446;-58
2022/03/31 10:06:59;;;;;;;24.52;9.60;;;;;;;18.60;54.82;95986.94;4995016;28;20050;-56
2022/03/31 10:09:26;;;;;;;25.85;9.35;;;;;;;19.19;53.49;95967.31;5000431;28;20053;-70
2022/03/31 10:12:05;;;;;;;25.95;10.60;;;;;;;19.36;52.64;95963.16;5000722;28;20046;-69
2022/03/31 10:14:48;;;;;;;22.98;9.95;;;;;;;19.86;50.82;95975.44;5002539;28;20076;-57
2022/03/31 10:17:16;;;;;;;19.35;9.02;;;;;;;20.07;50.36;95977.50;5003353;28;20061;-57
2022/03/31 10:19:44;;;;;;;22.75;9.38;;;;;;;20.58;49.15;95973.16;5003535;28;20081;-69
2022/03/31 10:25:11;;;;;;;18.17;8.32;;;;;;;21.66;46.74;95972.69;5003426;28;20440;-58
2022/03/31 10:27:47;;;;;;;24.27;9.07;;;;;;;21.57;45.88;95936.03;5002479;28;20096;-59
2022/03/31 10:30:16;;;;;;;20.25;8.20;;;;;;;22.03;44.85;95946.88;5003334;28;20050;-58
2022/03/31 10:32:54;;;;;;;15.43;7.22;;;;;;;21.91;43.33;95922.44;5003792;28;20058;-70
2022/03/31 10:35:23;;;;;;;22.20;9.45;;;;;;;22.35;43.73;95945.41;5003578;28;20061;-58
2022/03/31 10:37:51;;;;;;;24.77;9.60;;;;;;;22.28;43.96;95906.22;5001874;28;20544;-60
2022/03/31 10:40:38;;;;;;;22.75;8.60;;;;;;;22.64;43.28;95939.22;5003518;28;20441;-59
2022/03/31 10:43:05;;;;;;;17.50;8.73;;;;;;;22.45;43.32;95905.38;5003439;28;20128;-72
2022/03/31 10:45:43;;;;;;;19.88;9.88;;;;;;;22.25;43.59;95868.47;5002826;28;20513;-65
2022/03/31 10:48:15;;;;;;;27.73;11.13;;;;;;;22.68;43.27;95905.97;5000749;28;20099;-61
2022/03/31 10:50:42;;;;;;;23.07;10.47;;;;;;;23.03;42.30;95904.97;4987699;28;20141;-60
2022/03/31 10:53:09;;;;;;;21.70;9.30;;;;;;;23.08;41.89;95912.81;4983861;28;21293;-57
2022/03/31 10:55:41;;;;;;;25.88;10.13;;;;;;;23.45;41.12;95924.69;4996459;28;20049;-57
2022/03/31 10:58:20;;;;;;;17.67;9.05;;;;;;;23.32;39.47;95870.44;4992982;28;20054;-63
2022/03/31 11:00:49;;;;;;;22.85;9.13;;;;;;;23.42;39.61;95886.09;4986520;28;20138;-58
2022/03/31 11:03:17;;;;;;;23.58;8.00;;;;;;;22.55;40.98;95902.56;5002424;28;20169;-57
2022/03/31 11:05:45;;;;;;;24.67;8.57;;;;;;;22.93;39.93;95826.44;4991767;28;20060;-70
2022/03/31 11:08:39;;;;;;;28.34;11.17;;;;;;;23.56;39.54;95891.00;3311087;28;10004076;-56
2022/03/31 11:11:06;;;;;;;22.88;9.48;;;;;;;23.20;39.48;95862.97;4573892;28;10000544;-59
2022/03/31 11:13:35;;;;;;;19.95;8.27;;;;;;;23.46;39.14;95893.13;5016998;28;20512;-57
2022/03/31 11:16:04;;;;;;;19.55;8.88;;;;;;;23.54;38.64;95887.88;5020229;28;20138;-58
2022/03/31 11:18:31;;;;;;;20.08;8.00;;;;;;;23.33;38.09;95835.28;5013012;28;20067;-66
2022/03/31 11:21:00;;;;;;;18.10;7.97;;;;;;;23.42;39.63;95852.16;5012456;28;20054;-59
2022/03/31 11:23:28;;;;;;;19.60;9.02;;;;;;;23.44;39.38;95872.25;5008303;28;20080;-65
2022/03/31 11:25:57;;;;;;;21.52;9.48;;;;;;;23.46;39.56;95875.34;5009443;28;20060;-66
2022/03/31 11:28:29;;;;;;;27.67;11.02;;;;;;;23.26;39.71;95839.25;5004369;28;20137;-66
2022/03/31 11:30:59;;;;;;;19.23;9.40;;;;;;;22.14;40.88;95777.91;5004635;28;20076;-59
2022/03/31 11:33:35;;;;;;;17.77;7.93;;;;;;;21.96;41.46;95758.25;5005577;28;20061;-64